New Port Richey, Florida
Current Conditions -  °F | °C
As of 11:15 PM on Sunday 23 Nov 2014 (Local Time) from KCLW Reporting Station
Overcast Overcast  
Wind Chill: 73°   Ceiling: 700
Heat Index: 73°   Visibility: 10mi
Dew Point: 72°   Wind: 6mph
Humidity: 94%   Direction: 170°S
Pressure: 29.93"   Gusts: NA
Location:  28.25°N, 82.72°W
Report Text: KCLW 240415Z AUTO 17005KT 10SM OVC007 23/22 A2993 RMK AO2
Loading
Personal Weather Stations






























Interactive Weather Map New forecast layout! Learn more

10-Day Weather Forecast

Advertisements
Track Severe Weather on mobile